Time;durP1;ratioP1;P1;durP2;ratioP2;P2;SDS_P1;SDS_P2;PMS_P1;PMS_P2;Temp;Humidity;BMP_temperature;BMP_pressure;BME280_temperature;BME280_humidity;BME280_pressure;Samples;Min_cycle;Max_cycle;Signal;HPM_P1;HPM_P2
2023/01/27 00:00:40;;;;;;;9.60;4.88;;;;;;;4.30;100.00;95587.44;5113834;28;20500;-64
2023/01/27 00:03:12;;;;;;;9.02;4.95;;;;;;;4.33;100.00;95622.78;5113847;28;20135;-64
2023/01/27 00:05:39;;;;;;;7.55;5.22;;;;;;;4.37;100.00;95648.50;5113909;28;20050;-65
2023/01/27 00:08:08;;;;;;;9.63;5.13;;;;;;;4.42;100.00;95656.16;5113710;28;20094;-65
2023/01/27 00:10:35;;;;;;;8.30;5.15;;;;;;;4.49;100.00;95665.44;5113852;28;20044;-66
2023/01/27 00:15:47;;;;;;;11.07;5.57;;;;;;;4.60;99.39;95665.16;5113860;28;20066;-66
2023/01/27 00:18:16;;;;;;;11.50;5.70;;;;;;;4.63;99.09;95659.03;5113671;28;20538;-65
2023/01/27 00:26:14;;;;;;;14.48;7.32;;;;;;;4.53;100.00;95650.69;5113666;28;20050;-64
2023/01/27 00:28:43;;;;;;;16.77;7.47;;;;;;;4.55;100.00;95652.34;5113420;28;20076;-65
2023/01/27 00:34:00;;;;;;;14.82;7.53;;;;;;;4.47;100.00;95648.25;5113563;28;20132;-66
2023/01/27 00:36:28;;;;;;;13.63;7.63;;;;;;;4.49;100.00;95652.50;5113449;28;20105;-66
2023/01/27 00:38:56;;;;;;;10.88;5.80;;;;;;;4.49;100.00;95643.91;5113325;28;20044;-66
2023/01/27 00:41:23;;;;;;;8.13;5.25;;;;;;;4.50;100.00;95653.34;5113478;28;20092;-65
2023/01/27 00:43:53;;;;;;;9.60;5.70;;;;;;;4.51;100.00;95637.78;5113370;28;20052;-64
2023/01/27 00:46:21;;;;;;;9.57;5.07;;;;;;;4.54;100.00;95631.66;5113423;28;20043;-66
2023/01/27 00:48:50;;;;;;;10.90;5.50;;;;;;;4.53;99.53;95629.97;5113238;28;20051;-65
2023/01/27 00:51:19;;;;;;;7.85;5.13;;;;;;;4.53;100.00;95622.19;5113220;28;20051;-65
2023/01/27 00:53:47;;;;;;;11.70;6.03;;;;;;;4.47;99.79;95631.00;5113234;28;20481;-65
2023/01/27 00:56:15;;;;;;;9.18;5.65;;;;;;;4.49;100.00;95623.19;5113188;28;20104;-66
2023/01/27 00:58:42;;;;;;;12.50;5.88;;;;;;;4.52;100.00;95617.91;5116473;28;20073;-66
2023/01/27 01:01:14;;;;;;;11.63;5.10;;;;;;;4.58;99.73;95620.34;5117323;28;20048;-65
2023/01/27 01:03:44;;;;;;;9.73;5.45;;;;;;;4.54;99.42;95596.25;5117351;28;20082;-65
2023/01/27 01:06:14;;;;;;;12.68;5.95;;;;;;;4.60;98.20;95597.81;5117326;28;20401;-65
2023/01/27 01:08:43;;;;;;;10.43;5.50;;;;;;;4.61;99.24;95598.66;5117167;28;20059;-65
2023/01/27 01:11:13;;;;;;;10.15;5.55;;;;;;;4.62;99.13;95595.16;5117173;28;20058;-65
2023/01/27 01:13:41;;;;;;;10.88;5.97;;;;;;;4.61;98.67;95602.09;5117130;28;20044;-65
2023/01/27 01:16:11;;;;;;;13.90;6.97;;;;;;;4.62;99.05;95597.75;5117005;28;20075;-65
2023/01/27 01:18:39;;;;;;;13.10;6.47;;;;;;;4.59;99.73;95596.13;5116997;28;20481;-65
2023/01/27 01:21:08;;;;;;;12.70;6.78;;;;;;;4.59;100.00;95598.72;5116638;28;20052;-65
2023/01/27 01:23:39;;;;;;;14.35;6.57;;;;;;;4.58;100.00;95591.84;5116956;28;20083;-65
2023/01/27 01:26:10;;;;;;;14.15;6.78;;;;;;;4.58;100.00;95590.97;5116823;28;20100;-65
2023/01/27 01:28:37;;;;;;;;;;;;;;;4.60;100.00;95591.78;5117166;28;20047;-66
2023/01/27 01:31:05;;;;;;;12.95;6.28;;;;;;;4.61;100.00;95601.25;5116851;28;19926;-66
2023/01/27 01:33:33;;;;;;;15.68;7.05;;;;;;;4.62;100.00;95600.34;5116721;28;20485;-64
2023/01/27 01:36:04;;;;;;;16.95;6.65;;;;;;;4.64;100.00;95590.81;5116721;28;20047;-66
2023/01/27 01:38:31;;;;;;;16.08;7.15;;;;;;;4.60;100.00;95571.91;5116523;28;20060;-67
2023/01/27 01:40:59;;;;;;;14.98;7.13;;;;;;;4.62;100.00;95579.63;5116618;28;20075;-65
2023/01/27 01:43:27;;;;;;;18.15;7.95;;;;;;;4.65;100.00;95567.44;5116553;28;20051;-65
2023/01/27 01:45:56;;;;;;;14.10;8.23;;;;;;;4.65;100.00;95574.34;5116404;28;20044;-65
2023/01/27 01:48:33;;;;;;;13.88;7.93;;;;;;;4.64;100.00;95570.09;5116331;28;20047;-65
2023/01/27 01:51:04;;;;;;;19.25;8.90;;;;;;;4.65;100.00;95561.41;5116334;28;20079;-65
2023/01/27 01:53:37;;;;;;;19.98;8.68;;;;;;;4.66;100.00;95566.53;5116221;28;20051;-66
2023/01/27 01:56:10;;;;;;;18.33;9.18;;;;;;;4.64;100.00;95545.00;5116297;28;20100;-66
2023/01/27 01:58:42;;;;;;;16.92;9.95;;;;;;;4.65;100.00;95541.53;5116258;28;20541;-65
2023/01/27 02:01:10;;;;;;;19.67;10.02;;;;;;;4.64;100.00;95539.00;5116162;28;20058;-65
2023/01/27 02:03:42;;;;;;;15.50;9.27;;;;;;;4.69;100.00;95534.50;5116085;28;20489;-65
2023/01/27 02:06:12;;;;;;;19.85;9.20;;;;;;;4.65;100.00;95527.72;5116065;28;20131;-65
2023/01/27 02:08:42;;;;;;;18.70;10.35;;;;;;;4.71;100.00;95518.91;5115576;28;20082;-66
2023/01/27 02:11:10;;;;;;;19.35;9.45;;;;;;;4.67;100.00;95531.97;5115918;28;20040;-66
2023/01/27 02:13:39;;;;;;;18.90;9.75;;;;;;;4.76;100.00;95530.00;5115990;28;20413;-65
2023/01/27 02:16:08;;;;;;;15.17;8.23;;;;;;;4.78;100.00;95533.38;5116000;28;20130;-65
2023/01/27 02:18:36;;;;;;;21.10;9.73;;;;;;;4.79;100.00;95516.94;5115888;28;20093;-65
2023/01/27 02:21:04;;;;;;;17.42;10.02;;;;;;;4.75;100.00;95510.13;5115432;28;20096;-65
2023/01/27 02:23:53;;;;;;;16.45;8.40;;;;;;;4.70;100.00;95518.09;5115695;28;20058;-64
2023/01/27 02:26:25;;;;;;;13.65;7.53;;;;;;;4.74;100.00;95524.84;5115721;28;20048;-65
2023/01/27 02:28:56;;;;;;;16.50;7.68;;;;;;;4.72;100.00;95531.81;5115440;28;20052;-65
2023/01/27 02:31:24;;;;;;;16.42;8.45;;;;;;;4.72;100.00;95525.81;5115522;28;20127;-66
2023/01/27 02:33:53;;;;;;;16.02;8.10;;;;;;;4.73;100.00;95504.19;5115659;28;20048;-66
2023/01/27 02:36:20;;;;;;;15.80;8.23;;;;;;;4.68;100.00;95504.31;5115485;28;20073;-66
2023/01/27 02:38:50;;;;;;;20.20;8.55;;;;;;;4.54;100.00;95500.41;5115397;28;20100;-64
2023/01/27 02:41:27;;;;;;;20.27;9.02;;;;;;;4.64;100.00;95502.72;5115442;28;20047;-65
2023/01/27 02:43:54;;;;;;;16.33;7.97;;;;;;;4.61;100.00;95514.00;5115351;28;20066;-65
2023/01/27 02:46:22;;;;;;;17.40;7.03;;;;;;;4.64;100.00;95523.44;5115391;28;20477;-66
2023/01/27 02:48:49;;;;;;;12.27;6.53;;;;;;;4.63;100.00;95538.13;5115281;28;20551;-65
2023/01/27 02:51:16;;;;;;;11.27;6.10;;;;;;;4.61;100.00;95526.13;5115247;28;20062;-65
2023/01/27 02:53:43;;;;;;;12.73;6.38;;;;;;;4.65;100.00;95530.31;5115085;28;20040;-65
2023/01/27 02:56:11;;;;;;;10.60;6.53;;;;;;;4.64;100.00;95534.63;5115105;28;20499;-65
2023/01/27 02:58:40;;;;;;;12.00;6.95;;;;;;;4.68;100.00;95519.88;5115002;28;20054;-65
2023/01/27 03:01:08;;;;;;;11.43;7.10;;;;;;;4.70;100.00;95504.28;5114992;28;20047;-66
2023/01/27 03:03:45;;;;;;;12.18;6.40;;;;;;;4.65;100.00;95510.44;5114974;28;20122;-66
2023/01/27 03:06:13;;;;;;;8.70;5.40;;;;;;;4.69;100.00;95513.78;5114845;28;20051;-65
2023/01/27 03:08:40;;;;;;;8.38;5.32;;;;;;;4.73;100.00;95509.38;5114746;28;20058;-64
2023/01/27 03:11:08;;;;;;;6.35;4.40;;;;;;;4.67;100.00;95500.88;5114766;28;20093;-66
2023/01/27 03:13:36;;;;;;;6.10;3.75;;;;;;;4.66;100.00;95509.53;5114716;28;20468;-65
2023/01/27 03:18:55;;;;;;;9.52;4.40;;;;;;;4.72;100.00;95499.91;5114789;28;20128;-65
2023/01/27 03:21:22;;;;;;;7.60;4.70;;;;;;;4.74;100.00;95498.94;5113434;28;20043;-65
2023/01/27 03:23:49;;;;;;;8.45;5.10;;;;;;;4.68;100.00;95486.19;5114469;28;20043;-65
2023/01/27 03:26:16;;;;;;;9.88;5.63;;;;;;;4.71;100.00;95504.22;5114443;28;20409;-66
2023/01/27 03:29:53;;;;;;;7.40;4.85;;;;;;;4.74;100.00;95517.09;5114416;28;20461;-65
2023/01/27 03:31:32;;;;;;;12.52;5.90;;;;;;;4.76;100.00;95517.03;5114350;28;20048;-65
2023/01/27 03:33:59;;;;;;;9.55;6.05;;;;;;;4.78;100.00;95512.63;5114341;28;20040;-65
2023/01/27 03:47:27;;;;;;;10.95;6.82;;;;;;;4.73;100.00;95479.09;5114205;28;20093;-64
2023/01/27 03:49:55;;;;;;;8.65;5.65;;;;;;;4.72;100.00;95481.75;5113997;28;20054;-64
2023/01/27 03:52:23;;;;;;;11.63;6.13;;;;;;;4.73;100.00;95473.09;5113965;28;20047;-64
2023/01/27 03:54:50;;;;;;;11.10;6.70;;;;;;;4.73;100.00;95465.31;5113975;28;20082;-63
2023/01/27 03:57:17;;;;;;;11.68;7.93;;;;;;;4.73;100.00;95467.91;5113925;28;20123;-64
2023/01/27 03:59:44;;;;;;;14.02;8.65;;;;;;;4.72;100.00;95481.75;5113835;28;20456;-65
2023/01/27 04:07:41;;;;;;;21.75;8.50;;;;;;;4.84;100.00;95494.31;5113888;28;20051;-66
2023/01/27 04:10:10;;;;;;;16.55;8.10;;;;;;;4.94;100.00;95492.28;5113686;28;20047;-64
2023/01/27 04:12:36;;;;;;;15.57;8.35;;;;;;;4.97;100.00;95483.56;5113738;28;20493;-66
2023/01/27 04:15:04;;;;;;;18.83;8.68;;;;;;;4.90;100.00;95485.50;5113648;28;20092;-66
2023/01/27 04:17:37;;;;;;;18.38;8.57;;;;;;;4.94;100.00;95463.78;5113757;28;20046;-65
2023/01/27 04:20:07;;;;;;;11.60;7.63;;;;;;;4.94;100.00;95468.97;5113282;28;20043;-64
2023/01/27 04:22:34;;;;;;;15.07;8.05;;;;;;;5.02;100.00;95479.91;5113610;28;20047;-65
2023/01/27 04:25:01;;;;;;;11.30;7.07;;;;;;;5.04;100.00;95477.28;5113691;28;20541;-65
2023/01/27 04:27:28;;;;;;;12.50;7.03;;;;;;;5.09;100.00;95475.34;5113637;28;20071;-66
2023/01/27 04:29:55;;;;;;;17.02;8.02;;;;;;;5.15;100.00;95469.97;5113429;28;20051;-64
2023/01/27 04:32:22;;;;;;;11.45;7.70;;;;;;;5.10;100.00;95471.88;5113169;28;20051;-64
2023/01/27 04:34:49;;;;;;;15.35;7.88;;;;;;;5.17;100.00;95468.19;5113482;28;20040;-65
2023/01/27 04:37:18;;;;;;;13.30;7.53;;;;;;;5.19;100.00;95462.94;5113548;28;20480;-64
2023/01/27 04:39:46;;;;;;;17.40;8.05;;;;;;;5.20;100.00;95461.22;5113386;28;20047;-64
2023/01/27 04:42:14;;;;;;;13.25;7.75;;;;;;;5.22;100.00;95465.44;5113441;28;20066;-66
2023/01/27 04:44:40;;;;;;;36.88;10.00;;;;;;;5.18;100.00;95437.94;5113467;28;20048;-65
2023/01/27 04:47:08;;;;;;;13.88;9.70;;;;;;;5.10;100.00;95417.44;5113414;28;20052;-64
2023/01/27 04:49:35;;;;;;;19.63;9.20;;;;;;;4.98;100.00;95416.13;5113432;28;20048;-64
2023/01/27 04:52:02;;;;;;;17.85;8.98;;;;;;;4.88;100.00;95436.28;5113530;28;20054;-64
2023/01/27 04:54:31;;;;;;;12.98;7.90;;;;;;;4.84;100.00;95432.13;5113269;28;20047;-64
2023/01/27 04:57:02;;;;;;;12.63;8.65;;;;;;;4.85;100.00;95423.44;5113206;28;20485;-64
2023/01/27 04:59:29;;;;;;;12.68;7.20;;;;;;;4.82;100.00;95435.66;5113359;28;20047;-65
2023/01/27 05:01:56;;;;;;;13.15;7.53;;;;;;;4.84;100.00;95444.25;5113217;28;20048;-63
2023/01/27 05:04:25;;;;;;;11.38;7.53;;;;;;;4.81;100.00;95445.16;5113154;28;20469;-64
2023/01/27 05:06:52;;;;;;;11.73;7.45;;;;;;;4.77;100.00;95430.63;5113221;28;20103;-64
2023/01/27 05:09:19;;;;;;;14.70;8.70;;;;;;;4.78;100.00;95427.13;5113053;28;20146;-64
2023/01/27 05:11:47;;;;;;;13.75;7.50;;;;;;;4.79;100.00;95437.44;5113082;28;20090;-65
2023/01/27 05:14:14;;;;;;;12.55;7.60;;;;;;;4.86;100.00;95434.66;5113184;28;20040;-64
2023/01/27 05:16:42;;;;;;;12.57;7.78;;;;;;;4.83;100.00;95435.63;5113032;28;20101;-64
2023/01/27 05:19:09;;;;;;;12.05;8.20;;;;;;;4.85;100.00;95441.56;5112979;28;20043;-64
2023/01/27 05:21:36;;;;;;;14.05;9.18;;;;;;;4.81;100.00;95455.53;5112988;28;20112;-63
2023/01/27 05:24:04;;;;;;;19.02;9.38;;;;;;;4.79;100.00;95455.59;5112971;28;20051;-64
2023/01/27 05:26:31;;;;;;;13.82;8.45;;;;;;;4.78;100.00;95466.84;5112990;28;20138;-63
2023/01/27 05:28:59;;;;;;;15.75;8.90;;;;;;;4.74;100.00;95467.00;5113066;28;20100;-64
2023/01/27 05:31:30;;;;;;;15.40;8.40;;;;;;;4.83;100.00;95463.25;5112972;28;20044;-65
2023/01/27 05:33:59;;;;;;;14.15;8.93;;;;;;;4.79;100.00;95458.19;5112959;28;20054;-65
2023/01/27 05:36:26;;;;;;;18.23;8.88;;;;;;;4.85;100.00;95467.50;5112901;28;20047;-63
2023/01/27 05:38:55;;;;;;;16.23;9.20;;;;;;;4.84;100.00;95463.22;5112866;28;20101;-64
2023/01/27 05:41:23;;;;;;;17.17;8.52;;;;;;;4.87;100.00;95464.84;5112757;28;20054;-63
2023/01/27 05:43:53;;;;;;;16.17;8.90;;;;;;;4.90;100.00;95473.38;5112739;28;20073;-64
2023/01/27 05:46:24;;;;;;;14.43;8.93;;;;;;;4.90;100.00;95478.56;5116483;28;20054;-63
2023/01/27 05:48:53;;;;;;;15.35;8.02;;;;;;;4.92;100.00;95475.94;5116461;28;20142;-64
2023/01/27 05:51:23;;;;;;;15.38;7.90;;;;;;;4.93;100.00;95468.09;5116223;28;20052;-65
2023/01/27 05:53:51;;;;;;;8.43;5.47;;;;;;;4.93;100.00;95468.09;5116263;28;20477;-63
2023/01/27 05:56:19;;;;;;;12.13;7.07;;;;;;;4.93;100.00;95456.88;5116239;28;20058;-65
2023/01/27 05:58:46;;;;;;;17.50;7.53;;;;;;;4.96;100.00;95459.38;5116210;28;20044;-63
2023/01/27 06:01:16;;;;;;;14.48;7.80;;;;;;;4.90;100.00;95459.56;5116120;28;20051;-63
2023/01/27 06:03:46;;;;;;;12.40;6.55;;;;;;;4.91;100.00;95467.28;5116136;28;20047;-63
2023/01/27 06:06:15;;;;;;;6.40;4.65;;;;;;;4.87;100.00;95455.34;5116123;28;20628;-63
2023/01/27 06:08:44;;;;;;;9.25;6.25;;;;;;;4.92;100.00;95468.16;5116136;28;20043;-63
2023/01/27 06:11:11;;;;;;;11.63;6.20;;;;;;;4.95;100.00;95470.66;5116137;28;20151;-64
2023/01/27 06:13:39;;;;;;;9.07;6.03;;;;;;;5.01;100.00;95462.69;5116037;28;20485;-66
2023/01/27 06:16:08;;;;;;;11.93;6.28;;;;;;;5.02;100.00;95464.38;5115885;28;20077;-64
2023/01/27 06:18:36;;;;;;;10.75;6.40;;;;;;;5.03;100.00;95452.25;5115880;28;20074;-65
2023/01/27 06:21:07;;;;;;;16.13;6.85;;;;;;;5.03;100.00;95450.50;5115610;28;20087;-64
2023/01/27 06:23:38;;;;;;;10.73;6.15;;;;;;;5.08;100.00;95446.94;5115708;28;20044;-64
2023/01/27 06:26:09;;;;;;;7.65;5.68;;;;;;;5.16;100.00;95478.59;5115583;28;20050;-65
2023/01/27 06:28:37;;;;;;;8.90;5.80;;;;;;;5.24;100.00;95484.38;5115660;28;20052;-66
2023/01/27 06:31:08;;;;;;;13.27;5.75;;;;;;;5.29;100.00;95479.03;5115507;28;20051;-64
2023/01/27 06:33:37;;;;;;;10.45;5.70;;;;;;;5.28;100.00;95480.81;5115577;28;20046;-64
2023/01/27 06:36:08;;;;;;;13.05;5.72;;;;;;;5.32;100.00;95478.94;5115517;28;20126;-65
2023/01/27 06:38:36;;;;;;;7.78;5.28;;;;;;;5.34;100.00;95473.69;5115339;28;20496;-65
2023/01/27 06:41:04;;;;;;;10.75;4.95;;;;;;;5.38;100.00;95473.53;5115375;28;20479;-64
2023/01/27 06:43:32;;;;;;;11.23;5.25;;;;;;;5.45;100.00;95479.38;5115446;28;20047;-64
2023/01/27 06:45:59;;;;;;;7.90;5.15;;;;;;;5.38;99.90;95483.06;5115300;28;20044;-64
2023/01/27 06:48:30;;;;;;;9.60;5.25;;;;;;;5.42;100.00;95489.84;5115316;28;20050;-64
2023/01/27 06:50:58;;;;;;;11.43;5.70;;;;;;;5.46;100.00;95488.84;5115060;28;20139;-65
2023/01/27 06:53:27;;;;;;;6.93;5.07;;;;;;;5.53;100.00;95498.09;5115127;28;20443;-63
2023/01/27 06:55:58;;;;;;;8.90;5.28;;;;;;;5.60;99.87;95503.09;5115055;28;20055;-65
2023/01/27 06:58:27;;;;;;;8.43;5.60;;;;;;;5.63;99.78;95497.78;5114984;28;20044;-65
2023/01/27 07:00:55;;;;;;;8.30;4.53;;;;;;;5.65;99.50;95495.97;5114924;28;20165;-65
2023/01/27 07:03:23;;;;;;;12.20;5.40;;;;;;;5.70;99.11;95501.88;5115002;28;20043;-64
2023/01/27 07:05:50;;;;;;;6.35;4.32;;;;;;;5.72;98.67;95504.41;5114883;28;20093;-63
2023/01/27 07:08:17;;;;;;;7.47;4.30;;;;;;;5.69;98.57;95495.00;5114924;28;20047;-65
2023/01/27 07:10:46;;;;;;;7.47;4.38;;;;;;;5.69;98.45;95500.19;5114841;28;20109;-64
2023/01/27 07:13:15;;;;;;;8.70;3.85;;;;;;;5.73;98.08;95493.97;5114830;28;20078;-65
2023/01/27 07:15:43;;;;;;;5.53;3.67;;;;;;;5.71;98.49;95489.72;5114693;28;20550;-65
2023/01/27 07:18:13;;;;;;;3.58;2.75;;;;;;;5.69;98.42;95482.00;5114596;28;20056;-65
2023/01/27 07:20:40;;;;;;;4.38;3.40;;;;;;;5.56;98.03;95476.38;5114304;28;20123;-64
2023/01/27 07:23:10;;;;;;;4.57;3.58;;;;;;;5.50;98.44;95481.78;5114590;28;20096;-63
2023/01/27 07:25:38;;;;;;;4.72;3.17;;;;;;;5.52;98.43;95474.81;5114520;28;20132;-65
2023/01/27 07:42:13;;;;;;;5.35;3.30;;;;;;;6.15;95.00;95450.97;5131818;27;20911;-61
2023/01/27 07:44:41;;;;;;;5.25;3.58;;;;;;;6.09;95.72;95447.72;5131669;27;20051;-60
2023/01/27 07:47:08;;;;;;;4.93;3.50;;;;;;;5.95;96.14;95449.06;5131422;27;20047;-60
2023/01/27 07:49:36;;;;;;;4.43;3.63;;;;;;;5.90;96.74;95448.41;5131225;28;20054;-60
2023/01/27 07:52:03;;;;;;;8.82;3.65;;;;;;;5.81;97.59;95453.00;5131407;27;20048;-61
2023/01/27 07:54:30;;;;;;;4.57;3.72;;;;;;;5.78;97.99;95450.53;5131350;28;20043;-60
2023/01/27 07:57:00;;;;;;;4.60;3.90;;;;;;;5.76;98.53;95454.09;5131274;28;20480;-60
2023/01/27 07:59:29;;;;;;;7.22;4.25;;;;;;;5.72;99.09;95455.09;5131223;28;20412;-60
2023/01/27 08:01:56;;;;;;;6.30;4.15;;;;;;;5.70;99.63;95449.97;5131169;28;20047;-61
2023/01/27 08:04:24;;;;;;;6.57;4.50;;;;;;;5.73;99.82;95449.84;5131259;27;20048;-60
2023/01/27 08:06:52;;;;;;;4.60;3.28;;;;;;;5.82;99.91;95456.47;5130888;28;20043;-61
2023/01/27 08:09:19;;;;;;;6.50;3.92;;;;;;;5.92;99.89;95446.56;5130960;27;20052;-61
2023/01/27 08:11:46;;;;;;;4.07;3.17;;;;;;;5.97;98.82;95455.06;5130774;28;20454;-61
2023/01/27 08:14:13;;;;;;;5.20;3.85;;;;;;;5.99;98.33;95448.03;5131125;28;20385;-61
2023/01/27 08:16:42;;;;;;;4.95;4.25;;;;;;;6.01;98.43;95437.59;5130966;27;20043;-61
2023/01/27 08:19:09;;;;;;;5.93;4.40;;;;;;;5.93;98.31;95433.53;5130688;28;20480;-61
2023/01/27 08:21:37;;;;;;;8.27;4.85;;;;;;;5.91;98.84;95430.16;5130652;27;20062;-60
2023/01/27 08:24:04;;;;;;;7.30;5.10;;;;;;;5.96;98.93;95427.38;5130532;28;20048;-59
2023/01/27 08:26:31;;;;;;;7.22;4.72;;;;;;;6.00;99.25;95425.53;5130665;28;20077;-60
2023/01/27 08:28:59;;;;;;;6.40;4.63;;;;;;;5.94;99.17;95422.25;5130468;27;20051;-61
2023/01/27 08:31:26;;;;;;;5.75;4.72;;;;;;;6.02;99.20;95426.31;5130450;27;20051;-61
2023/01/27 08:33:55;;;;;;;8.48;4.90;;;;;;;6.00;99.03;95420.34;5130400;27;20048;-61
2023/01/27 08:36:23;;;;;;;7.30;5.78;;;;;;;5.97;98.73;95426.50;5130328;28;20135;-62
2023/01/27 08:38:51;;;;;;;7.95;5.75;;;;;;;5.98;98.26;95423.00;5130221;28;20065;-61
2023/01/27 08:41:21;;;;;;;9.32;6.43;;;;;;;5.99;98.86;95418.66;5126636;28;20079;-60
2023/01/27 08:43:49;;;;;;;5.38;4.50;;;;;;;5.96;98.24;95417.00;5116554;28;20051;-62
2023/01/27 08:46:17;;;;;;;9.35;6.50;;;;;;;5.93;98.44;95414.53;5116550;27;20043;-61
2023/01/27 08:48:45;;;;;;;8.07;6.47;;;;;;;5.89;98.05;95423.31;5116451;28;20044;-59
2023/01/27 08:51:14;;;;;;;10.70;6.05;;;;;;;5.93;98.69;95423.16;5116399;28;20510;-61
2023/01/27 08:53:41;;;;;;;9.13;6.28;;;;;;;5.97;98.03;95418.72;5116444;28;20044;-61
2023/01/27 08:56:11;;;;;;;8.82;6.32;;;;;;;5.86;97.79;95411.31;5116320;28;20044;-60
2023/01/27 09:16:28;;;;;;;8.20;6.35;;;;;;;6.31;95.29;95417.44;5097716;27;2135716;-62
2023/01/27 09:18:56;;;;;;;7.22;5.85;;;;;;;6.29;94.71;95408.03;5152207;27;20067;-65
2023/01/27 09:21:23;;;;;;;8.93;6.07;;;;;;;6.17;94.96;95417.16;5151906;27;20047;-64
2023/01/27 09:23:51;;;;;;;8.68;6.22;;;;;;;6.15;95.79;95409.41;5151918;27;20053;-64
2023/01/27 09:26:19;;;;;;;7.97;5.80;;;;;;;6.18;95.62;95403.25;5151725;27;20050;-64
2023/01/27 09:28:46;;;;;;;8.02;5.60;;;;;;;6.21;95.33;95402.28;5151825;27;20047;-64
2023/01/27 09:31:14;;;;;;;7.38;5.60;;;;;;;6.05;95.35;95397.69;5151790;27;20065;-64
2023/01/27 09:33:42;;;;;;;10.50;5.65;;;;;;;6.03;95.86;95397.72;5151586;27;20396;-65
2023/01/27 09:36:14;;;;;;;8.18;5.85;;;;;;;6.12;95.83;95401.72;5151497;27;20481;-65
2023/01/27 09:38:46;;;;;;;9.07;5.47;;;;;;;6.07;95.87;95398.47;5151551;27;20042;-64
2023/01/27 09:41:29;;;;;;;7.85;5.40;;;;;;;6.03;95.64;95395.13;5151553;27;20051;-66
2023/01/27 09:44:19;;;;;;;7.88;5.60;;;;;;;6.03;95.64;95394.25;5151855;27;20047;-63
2023/01/27 09:47:00;;;;;;;9.40;5.70;;;;;;;6.00;95.61;95387.44;5151375;27;20043;-64
2023/01/27 09:49:48;;;;;;;8.93;5.93;;;;;;;6.02;95.44;95389.97;5151451;27;20050;-63
2023/01/27 09:52:35;;;;;;;10.52;5.70;;;;;;;6.04;95.60;95388.19;5151290;27;20619;-64
2023/01/27 09:55:12;;;;;;;9.48;5.72;;;;;;;6.06;96.34;95381.19;5151352;27;20047;-65
2023/01/27 09:57:51;;;;;;;7.75;5.20;;;;;;;6.09;95.86;95378.47;5151185;27;20117;-67
2023/01/27 10:00:33;;;;;;;10.35;4.68;;;;;;;6.07;95.80;95381.13;5151457;27;20104;-65
2023/01/27 10:03:27;;;;;;;6.57;4.53;;;;;;;5.99;95.65;95380.53;5151139;27;20493;-64
2023/01/27 10:06:15;;;;;;;6.97;4.40;;;;;;;5.94;95.94;95374.69;5150921;27;20055;-64
2023/01/27 10:09:01;;;;;;;6.03;4.40;;;;;;;5.96;96.25;95374.63;5151103;27;20480;-67
2023/01/27 10:11:35;;;;;;;3.95;3.55;;;;;;;5.93;96.43;95373.00;5151056;27;20043;-64
2023/01/27 10:14:15;;;;;;;2.92;2.33;;;;;;;5.91;95.95;95367.88;5150880;27;20051;-63
2023/01/27 10:30:25;;;;;;;2.53;1.92;;;;;;;6.45;90.54;95344.16;5090611;28;20125;-62
2023/01/27 10:33:01;;;;;;;4.63;2.28;;;;;;;6.29;90.78;95346.53;5090414;28;20048;-64
2023/01/27 10:35:33;;;;;;;2.30;2.10;;;;;;;6.04;91.18;95333.66;5090508;28;20056;-62
2023/01/27 10:38:11;;;;;;;2.33;2.13;;;;;;;5.75;91.27;95333.84;5090361;28;20463;-64
2023/01/27 10:40:45;;;;;;;2.40;2.20;;;;;;;5.65;92.20;95327.31;5090381;28;20059;-63
2023/01/27 10:43:19;;;;;;;2.10;1.98;;;;;;;5.60;93.34;95326.66;5090318;28;20050;-62
2023/01/27 10:45:58;;;;;;;2.63;2.42;;;;;;;5.50;93.70;95323.56;5090396;28;20048;-64
2023/01/27 10:48:36;;;;;;;3.83;2.30;;;;;;;5.41;94.52;95317.81;5090157;28;20624;-64
2023/01/27 10:51:13;;;;;;;2.65;2.30;;;;;;;5.29;93.25;95307.88;5090053;28;20052;-62
2023/01/27 10:53:49;;;;;;;2.28;2.08;;;;;;;5.28;94.78;95311.38;5090061;28;20056;-63
2023/01/27 10:56:26;;;;;;;4.22;2.45;;;;;;;5.20;94.57;95316.03;5090053;28;20052;-63
2023/01/27 10:59:00;;;;;;;2.50;2.30;;;;;;;5.10;94.72;95312.91;5089827;28;20055;-63
2023/01/27 11:01:35;;;;;;;8.05;2.67;;;;;;;5.10;95.89;95303.38;5089818;28;20063;-62
2023/01/27 11:04:09;;;;;;;2.55;2.33;;;;;;;5.12;95.61;95303.34;5089978;28;20082;-63
2023/01/27 11:06:40;;;;;;;2.15;1.95;;;;;;;4.99;94.52;95301.16;5089877;28;20044;-63
2023/01/27 11:09:24;;;;;;;2.83;2.50;;;;;;;5.01;95.10;95301.13;5089837;28;20084;-63
2023/01/27 11:11:53;;;;;;;4.75;2.30;;;;;;;5.04;95.74;95308.78;5089696;28;20075;-62
2023/01/27 11:14:26;;;;;;;2.63;2.35;;;;;;;5.04;94.75;95301.00;5089674;28;20044;-63
2023/01/27 11:17:03;;;;;;;2.50;2.30;;;;;;;5.03;93.39;95305.34;5089618;28;20048;-63
2023/01/27 11:19:45;;;;;;;3.17;2.22;;;;;;;4.95;93.65;95299.59;5089481;28;20133;-63
2023/01/27 11:22:23;;;;;;;3.78;3.20;;;;;;;4.90;93.40;95307.53;5089622;28;20097;-62
2023/01/27 11:24:58;;;;;;;3.30;2.70;;;;;;;4.83;92.89;95308.66;5089413;28;20044;-63
2023/01/27 11:27:42;;;;;;;3.28;2.97;;;;;;;4.75;94.60;95295.09;5089358;28;20130;-63
2023/01/27 11:30:17;;;;;;;4.82;2.50;;;;;;;4.84;95.30;95299.97;5081551;28;20044;-63
2023/01/27 11:32:59;;;;;;;4.10;2.95;;;;;;;4.82;93.98;95299.19;5075813;28;20045;-63
2023/01/27 11:35:26;;;;;;;3.05;2.60;;;;;;;4.77;94.69;95304.53;5075863;28;20084;-64
2023/01/27 11:37:54;;;;;;;4.88;2.97;;;;;;;4.70;94.01;95304.78;5075637;28;20485;-63
2023/01/27 11:40:26;;;;;;;4.05;2.92;;;;;;;4.64;94.78;95296.31;5075858;28;20052;-63
2023/01/27 11:42:56;;;;;;;4.18;2.80;;;;;;;4.58;94.98;95290.50;5075682;28;20040;-62
2023/01/27 11:45:25;;;;;;;4.97;3.13;;;;;;;4.54;95.91;95282.84;5075823;28;20080;-62
2023/01/27 11:47:58;;;;;;;3.47;2.60;;;;;;;4.45;95.25;95283.16;5075590;28;20390;-63
2023/01/27 11:50:30;;;;;;;3.38;2.75;;;;;;;4.38;96.37;95273.91;5075586;28;20106;-62
2023/01/27 11:53:10;;;;;;;3.28;2.90;;;;;;;4.47;97.22;95281.38;5075365;28;20048;-63
2023/01/27 11:55:42;;;;;;;3.25;2.80;;;;;;;4.48;97.02;95284.81;5075353;28;20051;-63
2023/01/27 11:58:19;;;;;;;4.85;3.20;;;;;;;4.48;96.76;95280.47;5075411;28;20052;-62
2023/01/27 12:00:50;;;;;;;3.55;2.70;;;;;;;4.46;96.54;95284.00;5075225;28;20044;-63
2023/01/27 12:03:24;;;;;;;4.15;2.63;;;;;;;4.51;96.28;95290.72;5075279;28;20045;-64
2023/01/27 12:05:55;;;;;;;4.15;2.38;;;;;;;4.43;95.42;95290.16;5075395;28;20489;-63
2023/01/27 12:08:44;;;;;;;5.22;2.28;;;;;;;4.33;95.26;95287.00;5075219;28;20555;-63
2023/01/27 12:11:22;;;;;;;2.85;2.40;;;;;;;4.32;95.77;95298.25;5075210;28;20512;-63
2023/01/27 12:13:55;;;;;;;2.30;2.10;;;;;;;4.16;95.01;95298.75;5075152;28;20048;-62
2023/01/27 12:16:26;;;;;;;4.20;2.40;;;;;;;4.10;95.02;95298.13;5075130;28;20052;-63
2023/01/27 12:19:01;;;;;;;3.05;2.38;;;;;;;4.11;95.75;95292.03;5074863;28;20052;-63
2023/01/27 12:21:40;;;;;;;4.07;2.08;;;;;;;4.11;95.73;95297.22;5074920;28;20044;-62
2023/01/27 12:24:22;;;;;;;4.75;2.60;;;;;;;4.11;96.62;95298.06;5074952;28;20044;-62
2023/01/27 12:26:53;;;;;;;2.47;1.80;;;;;;;4.07;95.55;95304.25;5074856;28;20048;-63
2023/01/27 12:29:26;;;;;;;3.30;2.47;;;;;;;4.07;95.92;95295.63;5074569;28;20122;-63
2023/01/27 12:31:56;;;;;;;3.50;2.75;;;;;;;4.02;94.55;95298.34;5074700;28;20080;-62
2023/01/27 12:34:31;;;;;;;7.50;2.60;;;;;;;3.90;94.52;95302.16;5074774;28;20055;-63
2023/01/27 12:37:00;;;;;;;6.20;2.20;;;;;;;3.89;95.11;95301.31;5074610;28;20055;-63
2023/01/27 12:39:42;;;;;;;4.80;2.40;;;;;;;3.87;95.23;95303.13;5074691;28;20063;-63
2023/01/27 12:42:36;;;;;;;3.03;2.30;;;;;;;3.84;94.93;95299.78;5073637;28;20044;-63
2023/01/27 12:45:20;;;;;;;2.33;1.88;;;;;;;3.76;94.92;95292.25;5074509;28;20063;-61
2023/01/27 12:48:19;;;;;;;4.32;2.13;;;;;;;3.76;96.09;95300.00;5074337;28;20127;-63
2023/01/27 12:51:06;;;;;;;2.10;1.90;;;;;;;3.78;94.97;95290.47;5069146;28;20048;-63
2023/01/27 12:53:33;;;;;;;5.03;2.22;;;;;;;3.74;94.79;95294.91;5074243;28;20050;-61
2023/01/27 12:56:10;;;;;;;4.18;2.42;;;;;;;3.73;95.79;95289.78;5074358;28;20049;-62
2023/01/27 12:58:40;;;;;;;4.03;2.05;;;;;;;3.77;95.21;95289.59;5074023;28;20448;-62
2023/01/27 13:01:23;;;;;;;2.17;1.63;;;;;;;3.75;94.66;95277.63;5074077;28;20040;-61
2023/01/27 13:03:55;;;;;;;2.42;1.95;;;;;;;3.68;93.72;95276.97;5073945;28;20054;-62
2023/01/27 13:06:34;;;;;;;2.55;1.98;;;;;;;3.66;94.86;95278.75;5074090;28;20505;-62